RJSARJSI

Guest
Details From RJSA - AOMORI
To RJSI - HANAMAKI
Flight Number -
Tags generated
Created
Modified
Stats Distance 81 nm / 150 km
Max Altitude 0 ft / 0 m
Waypoints 3
Social Downloads 0
Likes 0
Share VATSIM

Download

Looking for another format? Having issues loading an existing format? Contact us
Advertisement - Login to hide

Notes

Basic altitude profile: - Ascent Rate: 2500ft/min - Ascent Speed: 250kts - Cruise Altitude: 35000ft - Cruise Speed: 420kts - Descent Rate: 1500ft/min - Descent Speed: 250kts Options: - Use NATs: yes - Use PACOTS: yes - Use low airways: yes - Use high airways: yes

Route

RJSA HPE RJSI

ID Type Via Altitude Latitude Longitude Leg Dist Tot Dist Heading (true) Name
O RJSA APT - 0 ft / 0 m 40.73327˚ 140.68859˚ - 0 nm - AOMORI
HPE VOR - 0 ft / 0 m 39.43336˚ 141.13350˚ 80 nm 80 nm 165° / 165° HANAMAKI VOR-DME
O RJSI APT - 0 ft / 0 m 39.42872˚ 141.13538˚ 0 nm 80 nm 163° / 163° HANAMAKI

Altitude Profile

Advertisement - Login to hide

RJSA

Details ICAO RJSA (AOJ)
Name AOMORI
Region Japan
Timezone Asia/Tokyo (UTC+9.0)
Stats Elevation 664 ft / 202 m (AMSL)
Location 40.733272° 140.688594°
Runways 1
Magnetic Variation 8.939° W

METAR

RJSA 142300Z 22007KT 9999 -SHSN FEW010 SCT020 BKN050 01/M01 Q1021

Decode

TAF

TAF RJSA 141705Z 1418/1600 24008KT 8000 -SHSN FEW010 BKN020 BKN030 TEMPO 1418/1421 0700 SHSN FEW003 BKN005 BKN008 TEMPO 1421/1506 3000 -SHSN BECMG 1518/1521 21018KT TEMPO 1521/1600 21020G30KT 3000 SHRA BR FEW003 BKN005 BKN008

Decode

Departure Runways

ID Width Length Bearing (true) Bearing (mag) Surface Threshold Offset Overrun Length
06 200 ft / 61 m 9,838 ft / 2,999 m 51.79° 60.73° Asphalt 0 ft / 0 m 200 ft / 61 m
24 200 ft / 61 m 9,838 ft / 2,999 m 231.81° 240.75° Asphalt 0 ft / 0 m 200 ft / 61 m

RJSI

Details ICAO RJSI (HNA)
Name HANAMAKI
Region Japan
Timezone Asia/Tokyo (UTC+9.0)
Stats Elevation 297 ft / 91 m (AMSL)
Location 39.428725° 141.135379°
Runways 1
Magnetic Variation 8.454° W

METAR

RJSI 142300Z VRB02KT 6000 -SHSN FEW004 SCT010 BKN030 M02/M03 Q1023

Decode

TAF

Not found

Destination Runways

ID Width Length Bearing (true) Bearing (mag) Surface Threshold Offset Overrun Length
02 148 ft / 45 m 8,218 ft / 2,505 m 10.70° 19.15° Asphalt 0 ft / 0 m 197 ft / 60 m
20 148 ft / 45 m 8,218 ft / 2,505 m 190.70° 199.15° Asphalt 0 ft / 0 m 197 ft / 60 m

Approach Navaids

Runway Type Ident Frequency Range Bearing (true) Bearing (mag) Slope Elevation
20 Localiser IHP 109.30 MHz 18 nm / 33 km 190.69° 199.14° - 297 ft / 91 m (AMSL)
20 Glidescope IHP 109.30 MHz 10 nm / 19 km 190.70° 199.16° 3.00° 297 ft / 91 m (AMSL)

Popular Alternatives